Time;durP1;ratioP1;P1;durP2;ratioP2;P2;SDS_P1;SDS_P2;PMS_P1;PMS_P2;Temp;Humidity;BMP_temperature;BMP_pressure;BME280_temperature;BME280_humidity;BME280_pressure;Samples;Min_cycle;Max_cycle;Signal;HPM_P1;HPM_P2
2023/06/13 00:02:07;;;;;;;;;13.75;13.75;;;;;23.88;66.56;100649.47;6280992;22;45870;-65
2023/06/13 00:04:33;;;;;;;;;21.75;20.50;;;;;23.95;66.99;100652.50;6308980;22;45225;-64
2023/06/13 00:07:01;;;;;;;;;18.75;17.50;;;;;23.92;66.60;100658.22;6308464;22;45276;-65
2023/06/13 00:09:28;;;;;;;;;15.75;15.75;;;;;23.83;66.08;100640.84;6309263;22;45273;-65
2023/06/13 00:11:54;;;;;;;;;20.50;18.75;;;;;23.69;66.82;100633.88;6280850;22;45402;-65
2023/06/13 00:14:23;;;;;;;;;26.50;26.00;;;;;23.82;66.47;100659.06;6306681;22;45536;-65
2023/06/13 00:16:50;;;;;;;;;21.25;20.00;;;;;23.86;66.18;100667.81;6308305;22;45384;-65
2023/06/13 00:19:16;;;;;;;;;19.75;18.75;;;;;23.80;66.48;100663.72;6309234;22;45403;-65
2023/06/13 00:21:41;;;;;;;;;22.25;21.50;;;;;23.69;66.33;100644.78;6308826;22;45445;-65
2023/06/13 00:24:07;;;;;;;;;20.75;20.25;;;;;23.73;66.73;100645.34;6308762;22;45235;-65
2023/06/13 00:26:33;;;;;;;;;22.50;22.25;;;;;23.70;66.38;100648.34;6309055;22;45270;-64
2023/06/13 00:28:58;;;;;;;;;21.75;18.75;;;;;23.50;66.40;100621.00;6280230;22;45335;-65
2023/06/13 00:31:28;;;;;;;;;20.50;20.50;;;;;23.61;66.19;100644.59;6308218;22;45347;-65
2023/06/13 00:33:57;;;;;;;;;20.75;17.75;;;;;23.51;66.18;100633.66;6280533;22;46996;-65
2023/06/13 00:36:25;;;;;;;;;19.25;19.25;;;;;23.52;66.18;100640.81;6308588;22;45350;-65
2023/06/13 00:38:53;;;;;;;;;21.00;19.50;;;;;23.61;66.22;100650.03;6307913;22;45409;-65
2023/06/13 00:41:19;;;;;;;;;22.25;20.75;;;;;23.57;66.50;100646.72;6309043;22;45283;-65
2023/06/13 00:43:44;;;;;;;;;22.00;18.50;;;;;23.45;66.63;100621.41;6308859;22;45261;-65
2023/06/13 00:46:13;;;;;;;;;20.25;20.25;;;;;23.48;66.77;100634.75;6308933;22;45248;-65
2023/06/13 00:48:42;;;;;;;;;17.25;16.00;;;;;23.56;66.85;100644.16;6307551;22;45409;-65
2023/06/13 00:51:09;;;;;;;;;21.50;20.75;;;;;23.37;66.53;100617.66;6308485;22;45551;-65
2023/06/13 00:53:35;;;;;;;;;17.50;17.50;;;;;23.59;66.22;100649.28;6308041;22;46550;-65
2023/06/13 00:56:02;;;;;;;;;16.00;15.00;;;;;23.51;66.30;100649.13;6280810;22;45286;-65
2023/06/13 00:58:28;;;;;;;;;21.25;19.50;;;;;23.42;66.41;100639.91;6308247;22;45319;-65
2023/06/13 01:00:54;;;;;;;;;23.25;23.25;;;;;23.24;66.65;100607.84;6308537;22;45444;-64
2023/06/13 01:03:20;;;;;;;;;20.25;20.00;;;;;23.39;66.23;100618.38;6280736;22;47042;-65
2023/06/13 01:05:47;;;;;;;;;20.75;19.75;;;;;23.21;66.69;100593.66;6309028;22;45400;-65
2023/06/13 01:08:17;;;;;;;;;22.00;20.00;;;;;23.24;66.89;100601.56;6307708;22;45327;-64
2023/06/13 01:10:45;;;;;;;;;20.00;19.75;;;;;23.39;66.92;100632.88;6308835;22;45408;-64
2023/06/13 01:13:24;;;;;;;;;24.00;23.75;;;;;23.43;66.14;100641.63;6308518;22;46014;-64
2023/06/13 01:16:01;;;;;;;;;28.00;24.75;;;;;23.38;66.14;100643.91;6280348;22;45278;-64
2023/06/13 01:18:30;;;;;;;;;17.75;17.50;;;;;23.19;66.40;100617.41;6308630;22;45378;-64
2023/06/13 01:21:00;;;;;;;;;21.50;21.50;;;;;22.98;66.27;100596.47;6280669;22;45714;-65
2023/06/13 01:24:03;;;;;;;;;21.50;20.25;;;;;23.19;66.27;100634.63;6308575;22;46449;-64
2023/06/13 01:26:56;;;;;;;;;23.25;22.00;;;;;23.13;66.70;100635.16;6308652;22;45273;-64
2023/06/13 01:29:22;;;;;;;;;23.00;22.50;;;;;22.95;66.40;100607.63;6306958;22;45389;-65
2023/06/13 01:31:52;;;;;;;;;19.25;18.25;;;;;22.88;66.67;100599.13;6308775;22;45181;-65
2023/06/13 01:34:18;;;;;;;;;17.75;17.75;;;;;22.89;66.70;100605.47;6279934;22;48159;-65
2023/06/13 01:36:44;;;;;;;;;20.75;20.25;;;;;23.00;66.77;100629.00;6307981;22;45494;-65
2023/06/13 01:39:09;;;;;;;;;23.00;23.00;;;;;22.77;66.95;100596.50;6308132;22;45447;-65
2023/06/13 01:41:34;;;;;;;;;25.25;24.50;;;;;22.78;66.72;100609.09;6280235;22;45331;-65
2023/06/13 01:44:03;;;;;;;;;26.25;23.50;;;;;22.74;67.03;100613.09;6308579;22;46127;-64
2023/06/13 01:46:30;;;;;;;;;20.25;19.25;;;;;22.72;66.95;100601.44;6308467;22;45422;-65
2023/06/13 01:49:08;;;;;;;;;17.50;17.50;;;;;22.87;67.25;100632.81;6308668;22;45259;-65
2023/06/13 01:51:39;;;;;;;;;19.00;17.50;;;;;22.89;67.06;100636.25;6280455;22;45295;-65
2023/06/13 01:54:10;;;;;;;;;17.00;17.00;;;;;22.75;67.39;100612.06;6308332;22;45357;-65
2023/06/13 01:56:40;;;;;;;;;23.00;21.25;;;;;22.61;67.09;100590.66;6279077;22;45473;-65
2023/06/13 01:59:11;;;;;;;;;21.25;21.25;;;;;22.73;66.98;100608.63;6306944;22;45299;-65
2023/06/13 02:01:40;;;;;;;;;19.25;19.25;;;;;22.71;67.10;100608.75;6280627;22;45466;-64
2023/06/13 02:04:06;;;;;;;;;19.25;18.00;;;;;22.86;67.38;100632.94;6307698;22;45503;-65
2023/06/13 02:06:32;;;;;;;;;17.00;16.00;;;;;22.70;67.50;100603.44;6280448;22;45430;-65
2023/06/13 02:08:58;;;;;;;;;25.00;21.50;;;;;22.66;67.60;100599.28;6308047;22;45385;-65
2023/06/13 02:11:23;;;;;;;;;23.25;21.00;;;;;22.67;67.55;100599.16;6280330;22;45405;-65
2023/06/13 02:13:49;;;;;;;;;23.25;23.25;;;;;22.62;67.31;100584.19;6308203;22;46478;-64
2023/06/13 02:16:17;;;;;;;;;21.25;21.00;;;;;22.59;67.05;100582.63;6280125;22;45363;-64
2023/06/13 02:18:43;;;;;;;;;22.00;21.25;;;;;22.73;66.79;100617.66;6308171;22;45352;-64
2023/06/13 02:21:08;;;;;;;;;21.00;19.75;;;;;22.48;67.51;100572.63;6308427;22;45535;-65
2023/06/13 02:23:34;;;;;;;;;17.75;17.75;;;;;22.73;67.76;100616.78;6307888;22;45262;-64
2023/06/13 02:25:59;;;;;;;;;18.25;17.50;;;;;22.61;67.63;100593.38;6307835;22;45244;-65
2023/06/13 02:28:25;;;;;;;;;20.25;16.50;;;;;22.51;67.72;100585.13;6308165;22;45852;-65
2023/06/13 02:30:50;;;;;;;;;23.75;22.25;;;;;22.51;67.41;100593.28;6307827;22;45470;-65
2023/06/13 02:33:16;;;;;;;;;19.75;19.25;;;;;22.37;67.63;100584.44;6279753;22;46705;-64
2023/06/13 02:35:42;;;;;;;;;24.50;21.00;;;;;22.37;67.53;100584.44;6308355;22;45259;-64
2023/06/13 02:38:08;;;;;;;;;23.75;21.25;;;;;22.37;67.41;100580.88;6307986;22;45326;-65
2023/06/13 02:40:36;;;;;;;;;21.25;19.00;;;;;22.32;67.75;100575.81;6308568;22;45413;-64
2023/06/13 02:43:01;;;;;;;;;23.00;22.25;;;;;22.42;68.03;100592.22;6309404;22;45711;-64
2023/06/13 02:45:27;;;;;;;;;23.50;20.50;;;;;22.36;68.04;100587.28;6309306;22;45302;-64
2023/06/13 02:47:54;;;;;;;;;17.50;17.50;;;;;22.45;68.00;100607.41;6309135;22;45235;-64
2023/06/13 02:50:20;;;;;;;;;22.00;20.75;;;;;22.36;67.89;100590.00;6281513;22;45482;-65
2023/06/13 02:52:47;;;;;;;;;22.00;21.00;;;;;22.34;67.96;100581.13;6280994;22;47021;-64
2023/06/13 02:55:13;;;;;;;;;23.25;20.50;;;;;22.33;68.22;100584.81;6309479;22;45389;-64
2023/06/13 02:57:38;;;;;;;;;26.75;25.00;;;;;22.31;67.98;100579.50;6280632;22;45306;-64
2023/06/13 03:00:15;;;;;;;;;19.25;17.75;;;;;22.44;68.32;100600.25;6281330;22;45381;-64
2023/06/13 03:02:43;;;;;;;;;23.00;22.25;;;;;22.29;68.14;100576.06;6309181;22;46567;-64
2023/06/13 03:05:10;;;;;;;;;19.50;16.00;;;;;22.26;68.05;100565.41;6280912;22;45284;-64
2023/06/13 03:07:36;;;;;;;;;23.50;21.00;;;;;22.20;68.32;100558.66;6281172;22;45387;-65
2023/06/13 03:10:04;;;;;;;;;17.50;14.75;;;;;22.50;68.26;100608.75;6281554;22;45733;-65
2023/06/13 03:12:30;;;;;;;;;23.25;22.25;;;;;22.32;68.19;100569.50;6308991;22;46811;-64
2023/06/13 03:14:55;;;;;;;;;19.75;19.00;;;;;22.40;68.21;100591.47;6281214;22;45374;-65
2023/06/13 03:17:22;;;;;;;;;21.75;21.75;;;;;22.52;68.11;100609.47;6309291;22;45515;-65
2023/06/13 03:19:47;;;;;;;;;22.50;19.25;;;;;22.33;68.21;100580.25;6309463;22;45337;-64
2023/06/13 03:22:14;;;;;;;;;24.75;22.75;;;;;22.32;68.09;100580.38;6309272;22;46476;-64
2023/06/13 03:24:50;;;;;;;;;21.75;20.50;;;;;22.33;67.83;100596.56;6280951;22;45448;-64
2023/06/13 03:27:15;;;;;;;;;21.25;20.00;;;;;22.09;67.83;100568.72;6280700;22;45300;-64
2023/06/13 03:29:42;;;;;;;;;26.50;24.50;;;;;22.36;68.32;100611.75;6280980;22;45573;-65
2023/06/13 03:32:10;;;;;;;;;24.25;23.00;;;;;22.29;68.32;100605.13;6309376;22;45423;-65
2023/06/13 03:34:38;;;;;;;;;20.00;20.00;;;;;22.28;68.57;100597.91;6308752;22;45435;-64
2023/06/13 03:37:05;;;;;;;;;18.75;18.50;;;;;22.30;68.60;100601.41;6308715;22;45328;-64
2023/06/13 03:39:31;;;;;;;;;22.00;21.50;;;;;22.18;68.42;100593.22;6309036;22;45248;-64
2023/06/13 03:41:57;;;;;;;;;22.50;22.00;;;;;22.20;68.49;100591.28;6309202;22;45240;-64
2023/06/13 03:44:22;;;;;;;;;20.50;20.50;;;;;22.18;68.27;100584.22;6309170;22;45528;-64
2023/06/13 03:46:48;;;;;;;;;24.00;21.75;;;;;22.13;68.68;100584.59;6309313;22;45326;-64
2023/06/13 03:49:13;;;;;;;;;24.50;22.50;;;;;22.23;68.35;100600.16;6309038;22;45371;-64
2023/06/13 03:51:39;;;;;;;;;23.25;23.25;;;;;22.08;68.86;100569.69;6280866;22;47227;-64
2023/06/13 03:54:04;;;;;;;;;21.75;19.50;;;;;22.21;68.71;100595.69;6280671;22;45347;-64
2023/06/13 03:56:30;;;;;;;;;20.00;20.00;;;;;22.12;68.70;100588.34;6309001;22;45363;-64
2023/06/13 03:58:55;;;;;;;;;20.25;19.50;;;;;22.02;68.60;100571.94;6308904;22;45385;-64
2023/06/13 04:01:21;;;;;;;;;23.00;21.75;;;;;22.15;68.39;100598.06;6280806;22;46139;-64
2023/06/13 04:03:46;;;;;;;;;19.25;19.25;;;;;22.04;68.36;100579.94;6308906;22;45535;-64
2023/06/13 04:06:11;;;;;;;;;22.25;20.00;;;;;22.24;68.51;100607.34;6280195;22;45507;-64
2023/06/13 04:08:38;;;;;;;;;23.50;23.00;;;;;22.11;68.50;100589.31;6308581;22;45373;-64
2023/06/13 04:11:04;;;;;;;;;19.50;19.50;;;;;22.12;68.38;100593.78;6308845;22;45650;-64
2023/06/13 04:13:30;;;;;;;;;19.75;19.00;;;;;22.25;68.71;100611.75;6309108;22;45236;-64
2023/06/13 04:15:55;;;;;;;;;19.50;18.75;;;;;22.14;68.53;100599.94;6308878;22;45488;-64
2023/06/13 04:18:21;;;;;;;;;22.50;21.50;;;;;22.02;68.88;100584.66;6308831;22;45250;-64
2023/06/13 04:20:46;;;;;;;;;24.00;21.75;;;;;22.01;68.70;100585.63;6280764;22;46210;-64
2023/06/13 04:23:13;;;;;;;;;22.00;20.50;;;;;22.05;68.67;100597.13;6308983;22;45725;-64
2023/06/13 04:25:39;;;;;;;;;19.50;18.75;;;;;22.03;68.90;100599.97;6308744;22;45409;-64
2023/06/13 04:28:04;;;;;;;;;18.25;16.50;;;;;22.06;68.53;100604.28;6308330;22;45396;-64
2023/06/13 04:30:30;;;;;;;;;23.25;22.00;;;;;22.16;69.09;100616.13;6308879;22;45798;-64
2023/06/13 04:32:57;;;;;;;;;19.50;18.25;;;;;22.01;68.77;100596.50;6280840;22;45847;-64
2023/06/13 04:35:23;;;;;;;;;22.00;20.50;;;;;22.04;68.66;100598.97;6308029;22;45680;-64
2023/06/13 04:37:48;;;;;;;;;23.25;19.50;;;;;22.03;69.09;100605.38;6308021;22;45203;-64
2023/06/13 04:40:14;;;;;;;;;20.50;19.25;;;;;22.06;69.25;100604.28;6308204;22;45413;-64
2023/06/13 04:42:47;;;;;;;;;23.25;21.00;;;;;22.04;68.71;100606.28;6308794;22;45254;-64
2023/06/13 04:45:13;;;;;;;;;24.25;22.00;;;;;22.01;68.95;100601.94;6308784;22;45488;-64
2023/06/13 04:47:39;;;;;;;;;20.00;20.00;;;;;21.90;69.47;100583.81;6308429;22;45285;-64
2023/06/13 04:50:06;;;;;;;;;20.75;19.00;;;;;21.99;69.13;100598.50;6308613;22;45290;-64
2023/06/13 04:52:32;;;;;;;;;24.50;21.50;;;;;22.00;69.16;100611.97;6308919;22;45254;-64
2023/06/13 04:54:58;;;;;;;;;18.00;17.00;;;;;22.03;69.11;100616.25;6309140;22;45467;-64
2023/06/13 04:57:23;;;;;;;;;21.25;20.25;;;;;22.00;69.22;100611.06;6279918;22;45324;-64
2023/06/13 04:59:49;;;;;;;;;22.00;21.25;;;;;21.92;69.00;100592.72;6308624;22;45313;-64
2023/06/13 05:02:14;;;;;;;;;20.25;18.75;;;;;21.98;69.19;100607.63;6308657;22;45484;-64
2023/06/13 05:04:40;;;;;;;;;23.00;22.75;;;;;22.02;69.37;100603.69;6280742;22;45340;-64
2023/06/13 05:07:06;;;;;;;;;22.50;19.75;;;;;22.02;69.34;100609.13;6280323;22;45498;-64
2023/06/13 05:09:32;;;;;;;;;21.50;21.50;;;;;21.95;69.33;100591.56;6308972;22;45567;-64
2023/06/13 05:11:57;;;;;;;;;24.75;21.50;;;;;22.04;69.29;100623.44;6308838;22;45642;-64
2023/06/13 05:14:23;;;;;;;;;20.25;20.25;;;;;21.95;69.18;100597.91;6308956;22;45402;-64
2023/06/13 05:16:48;;;;;;;;;22.75;21.50;;;;;21.95;69.29;100597.00;6308643;22;45702;-64
2023/06/13 05:19:13;;;;;;;;;25.50;22.75;;;;;22.12;68.96;100634.53;6280413;22;46985;-64
2023/06/13 05:21:39;;;;;;;;;23.50;23.50;;;;;22.07;69.13;100623.19;6280911;22;45190;-64
2023/06/13 05:24:07;;;;;;;;;25.00;24.50;;;;;21.94;68.76;100614.31;6308913;22;45276;-64
2023/06/13 05:26:35;;;;;;;;;20.25;20.25;;;;;22.00;68.65;100616.50;6308174;22;45656;-64
2023/06/13 05:29:04;;;;;;;;;26.50;23.75;;;;;21.97;68.85;100622.22;6307707;22;45519;-64
2023/06/13 05:31:31;;;;;;;;;23.25;23.25;;;;;21.79;69.02;100586.56;6308228;22;45248;-64
2023/06/13 05:33:56;;;;;;;;;23.50;22.00;;;;;21.77;68.69;100585.81;6308628;22;45369;-64
2023/06/13 05:36:22;;;;;;;;;23.50;23.50;;;;;21.99;68.32;100623.81;6308483;22;45575;-64
2023/06/13 05:38:47;;;;;;;;;21.50;20.75;;;;;22.02;68.54;100615.41;6279783;22;47154;-64
2023/06/13 05:41:13;;;;;;;;;18.50;18.50;;;;;22.02;68.44;100620.84;6308350;22;45385;-64
2023/06/13 05:43:39;;;;;;;;;21.75;21.75;;;;;21.82;68.11;100584.44;6308931;22;45357;-64
2023/06/13 05:46:04;;;;;;;;;18.75;17.75;;;;;21.86;68.01;100584.19;6308054;22;45745;-64
2023/06/13 05:48:30;;;;;;;;;24.50;23.50;;;;;21.86;68.33;100590.50;6307899;22;45451;-64
2023/06/13 05:50:55;;;;;;;;;20.75;19.50;;;;;21.92;68.49;100605.41;6280735;22;45334;-64
2023/06/13 05:53:21;;;;;;;;;15.25;15.25;;;;;21.91;68.42;100601.84;6308260;22;45302;-64
2023/06/13 05:55:46;;;;;;;;;25.00;23.00;;;;;21.94;67.40;100617.91;6279864;22;45672;-65
2023/06/13 05:58:11;;;;;;;;;25.25;25.00;;;;;22.04;67.67;100630.75;6278239;22;47142;-66
2023/06/13 06:00:37;;;;;;;;;25.25;22.75;;;;;21.83;67.99;100599.78;6306600;22;45317;-65
2023/06/13 06:03:03;;;;;;;;;28.00;23.75;;;;;21.86;67.53;100614.09;6306893;22;45265;-66
2023/06/13 06:05:29;;;;;;;;;24.25;23.50;;;;;21.83;67.67;100610.63;6307652;22;45550;-65
2023/06/13 06:07:54;;;;;;;;;26.50;23.75;;;;;21.95;67.32;100635.06;6307293;22;46014;-66
2023/06/13 06:10:19;;;;;;;;;19.50;18.00;;;;;21.82;67.16;100610.75;6308494;22;45198;-66
2023/06/13 06:12:45;;;;;;;;;27.50;23.00;;;;;21.99;67.50;100629.25;6280159;22;45581;-65
2023/06/13 06:15:10;;;;;;;;;21.25;20.00;;;;;22.04;67.23;100619.88;6306550;22;45185;-66
2023/06/13 06:17:36;;;;;;;;;24.00;22.75;;;;;21.93;67.49;100596.28;6306377;22;45857;-66
2023/06/13 06:20:03;;;;;;;;;20.00;20.00;;;;;21.95;67.09;100599.72;6307378;22;45224;-66
2023/06/13 06:22:29;;;;;;;;;20.00;19.75;;;;;21.95;67.69;100581.59;6308287;22;45674;-66
2023/06/13 06:24:54;;;;;;;;;23.25;23.25;;;;;21.92;67.42;100570.09;6307174;22;45545;-66
2023/06/13 06:27:20;;;;;;;;;21.25;20.25;;;;;22.15;66.66;100607.09;6307497;22;46063;-66
2023/06/13 06:29:45;;;;;;;;;27.00;26.75;;;;;22.07;66.27;100595.13;6279068;22;45315;-66
2023/06/13 06:32:10;;;;;;;;;24.25;23.00;;;;;22.13;65.58;100598.19;6308203;22;45396;-66
2023/06/13 06:34:39;;;;;;;;;19.75;18.25;;;;;22.12;66.01;100591.06;6307573;22;45263;-66
2023/06/13 06:37:05;;;;;;;;;23.25;22.50;;;;;22.18;65.81;100592.38;6306793;22;45349;-65
2023/06/13 06:39:31;;;;;;;;;18.00;18.00;;;;;22.15;66.24;100581.75;6273213;22;45391;-66
2023/06/13 06:41:56;;;;;;;;;19.50;19.50;;;;;22.24;66.12;100597.31;6277082;22;45260;-66
2023/06/13 06:44:22;;;;;;;;;21.25;21.25;;;;;22.28;65.63;100598.81;6276087;22;45251;-66
2023/06/13 06:46:47;;;;;;;;;17.50;17.50;;;;;22.30;65.34;100599.56;6276637;22;45443;-66
2023/06/13 06:49:12;;;;;;;;;21.00;20.75;;;;;22.29;65.14;100588.81;6273318;22;45268;-68
2023/06/13 06:51:38;;;;;;;;;20.75;20.75;;;;;22.39;65.98;100597.91;6272747;22;45353;-62
2023/06/13 06:54:03;;;;;;;;;22.00;21.25;;;;;22.51;64.96;100607.75;6272699;22;45733;-61
2023/06/13 06:56:28;;;;;;;;;23.00;23.00;;;;;22.52;63.43;100611.31;6274885;22;45785;-61
2023/06/13 06:58:54;;;;;;;;;20.75;20.50;;;;;22.45;63.12;100591.94;6269379;22;45778;-61
2023/06/13 07:01:19;;;;;;;;;16.75;16.00;;;;;22.47;61.43;100591.81;6274909;22;45627;-62
2023/06/13 07:03:45;;;;;;;;;20.25;18.50;;;;;22.49;61.27;100596.13;6272938;22;45481;-61
2023/06/13 07:06:11;;;;;;;;;23.25;22.75;;;;;22.52;60.91;100601.31;6298200;22;47047;-62
2023/06/13 07:08:37;;;;;;;;;19.75;18.75;;;;;22.58;60.30;100597.19;6272988;22;45379;-62
2023/06/13 07:11:03;;;;;;;;;20.00;17.75;;;;;22.60;59.79;100594.34;6273854;22;45479;-61
2023/06/13 07:13:28;;;;;;;;;18.50;17.25;;;;;22.64;59.99;100595.84;6274219;22;45847;-62
2023/06/13 07:15:54;;;;;;;;;20.25;19.25;;;;;22.72;60.18;100604.16;6273223;22;46747;-61
2023/06/13 07:18:19;;;;;;;;;18.00;18.00;;;;;22.72;59.69;100604.16;6276162;22;45247;-62
2023/06/13 07:20:45;;;;;;;;;19.75;17.75;;;;;22.74;59.75;100594.91;6273924;22;45372;-61
2023/06/13 07:23:12;;;;;;;;;20.25;18.25;;;;;22.85;59.39;100606.72;6274667;22;45437;-61
2023/06/13 07:25:38;;;;;;;;;17.25;17.25;;;;;22.83;59.35;100601.41;6275083;22;46173;-62
2023/06/13 07:28:04;;;;;;;;;16.75;16.75;;;;;22.84;57.93;100605.00;6275236;22;45314;-61
2023/06/13 07:30:29;;;;;;;;;13.50;11.50;;;;;22.91;58.19;100607.03;6276456;22;45430;-61
2023/06/13 07:32:55;;;;;;;;;20.50;20.25;;;;;22.90;58.30;100607.16;6277992;22;45246;-61
2023/06/13 07:35:23;;;;;;;;;21.25;20.25;;;;;23.03;58.12;100623.31;6277376;22;45334;-61
2023/06/13 07:37:53;;;;;;;;;18.75;17.25;;;;;23.05;58.03;100613.16;6274493;22;45646;-61
2023/06/13 07:40:20;;;;;;;;;19.25;19.25;;;;;23.14;58.49;100620.56;6296240;22;45407;-62
2023/06/13 07:42:45;;;;;;;;;19.25;18.50;;;;;23.20;57.84;100614.53;6308506;22;45343;-61
2023/06/13 07:45:10;;;;;;;;;20.25;17.75;;;;;23.22;57.81;100615.31;6279402;22;47302;-61
2023/06/13 07:47:36;;;;;;;;;22.25;19.75;;;;;23.29;57.29;100615.63;6307312;22;45485;-61
2023/06/13 07:50:02;;;;;;;;;21.00;18.00;;;;;23.28;57.33;100609.28;6308030;22;45315;-61
2023/06/13 07:52:27;;;;;;;;;17.00;15.25;;;;;23.24;57.47;100587.94;6279830;22;45521;-61
2023/06/13 07:54:53;;;;;;;;;16.50;16.50;;;;;23.44;56.87;100614.25;6308252;22;52916;-61
2023/06/13 07:57:18;;;;;;;;;22.50;18.50;;;;;23.51;56.81;100609.13;6307614;22;45346;-61
2023/06/13 07:59:44;;;;;;;;;20.75;20.75;;;;;23.56;56.42;100600.56;6308613;22;45182;-61
2023/06/13 08:02:10;;;;;;;;;16.50;15.25;;;;;23.62;56.03;100603.59;6306655;22;45255;-61
2023/06/13 08:04:35;;;;;;;;;15.75;15.75;;;;;23.66;56.74;100601.44;6307501;22;45397;-61
2023/06/13 08:07:01;;;;;;;;;18.00;17.25;;;;;23.75;56.24;100606.06;6307962;22;45302;-61
2023/06/13 08:09:26;;;;;;;;;17.50;16.75;;;;;23.84;55.90;100601.69;6308691;22;45296;-61
2023/06/13 08:11:51;;;;;;;;;20.25;20.25;;;;;23.77;55.46;100584.09;6280007;22;45614;-61
2023/06/13 08:14:17;;;;;;;;;20.25;19.50;;;;;23.99;55.70;100596.66;6277544;22;45539;-62
2023/06/13 08:16:42;;;;;;;;;18.50;17.50;;;;;24.08;56.33;100605.91;6307554;22;45293;-61
2023/06/13 08:19:08;;;;;;;;;19.50;18.75;;;;;24.14;55.95;100597.13;6308725;22;45362;-61
2023/06/13 08:21:33;;;;;;;;;18.50;18.50;;;;;24.18;55.78;100594.00;6307964;22;45353;-61
2023/06/13 08:24:01;;;;;;;;;18.75;15.00;;;;;24.31;55.53;100607.34;6308531;22;45429;-61
2023/06/13 08:26:27;;;;;;;;;19.75;18.75;;;;;24.34;54.89;100595.28;6307988;22;45343;-61
2023/06/13 08:28:53;;;;;;;;;16.50;16.00;;;;;24.35;53.94;100584.22;6308363;22;45343;-61
2023/06/13 08:31:23;;;;;;;;;18.25;17.25;;;;;24.43;53.95;100589.00;6308532;22;45259;-61
2023/06/13 08:33:51;;;;;;;;;18.00;16.75;;;;;24.49;54.03;100588.41;6308428;22;45880;-61
2023/06/13 08:36:17;;;;;;;;;14.25;14.25;;;;;24.58;52.70;100586.72;6308383;22;45433;-61
2023/06/13 08:38:42;;;;;;;;;18.25;17.75;;;;;24.66;52.85;100588.72;6306607;22;45889;-61
2023/06/13 08:41:08;;;;;;;;;17.25;16.25;;;;;24.75;52.51;100596.88;6306482;22;45741;-61
2023/06/13 08:43:34;;;;;;;;;17.00;17.00;;;;;24.75;51.98;100582.38;6307726;22;45285;-61
2023/06/13 08:46:00;;;;;;;;;16.25;15.50;;;;;24.88;51.58;100599.31;6278835;22;45915;-61
2023/06/13 08:48:25;;;;;;;;;14.75;14.50;;;;;24.89;51.01;100579.22;6302645;22;45868;-61
2023/06/13 08:50:52;;;;;;;;;16.50;14.50;;;;;24.92;50.83;100588.97;6277361;22;45641;-61
2023/06/13 08:53:18;;;;;;;;;21.50;18.00;;;;;24.99;50.31;100594.69;6307719;22;46288;-61
2023/06/13 08:55:46;;;;;;;;;15.75;14.75;;;;;25.03;49.74;100590.69;6308182;22;45476;-61
2023/06/13 08:58:15;;;;;;;;;17.75;15.25;;;;;24.94;50.21;100565.09;6306554;22;45501;-61
2023/06/13 09:00:41;;;;;;;;;15.00;14.50;;;;;25.10;49.44;100581.72;6306224;22;45639;-61
2023/06/13 09:03:12;;;;;;;;;21.00;19.50;;;;;25.20;50.15;100589.06;6306879;22;45318;-61
2023/06/13 09:05:38;;;;;;;;;19.00;17.00;;;;;25.26;49.20;100591.16;6306499;22;45388;-61
2023/06/13 09:08:05;;;;;;;;;16.25;16.00;;;;;25.28;48.93;100579.13;6307494;22;45271;-61
2023/06/13 09:10:31;;;;;;;;;20.50;19.25;;;;;25.35;49.62;100589.47;6307778;22;45604;-61
2023/06/13 09:12:57;;;;;;;;;18.00;15.75;;;;;25.39;49.30;100591.72;6308212;22;45313;-62
2023/06/13 09:15:23;;;;;;;;;17.25;17.00;;;;;25.40;49.27;100587.16;6308229;22;45325;-61
2023/06/13 09:17:53;;;;;;;;;19.00;16.00;;;;;25.50;49.23;100591.53;6279942;22;45375;-61
2023/06/13 09:20:18;;;;;;;;;18.75;17.50;;;;;25.52;49.46;100584.06;6308632;22;45301;-61
2023/06/13 09:22:45;;;;;;;;;20.00;18.00;;;;;25.60;48.83;100585.19;6280314;22;47238;-61
2023/06/13 09:25:16;;;;;;;;;19.50;19.00;;;;;25.63;48.46;100584.91;6308741;22;45470;-61
2023/06/13 09:27:41;;;;;;;;;18.75;16.00;;;;;25.63;48.61;100583.00;6308412;22;45497;-62
2023/06/13 09:30:08;;;;;;;;;20.00;18.75;;;;;25.64;47.64;100584.75;6307042;22;45438;-61
2023/06/13 09:32:34;;;;;;;;;18.00;17.25;;;;;25.67;47.86;100580.84;6307104;22;46621;-62
2023/06/13 09:35:02;;;;;;;;;14.50;14.25;;;;;25.80;47.93;100580.47;6308339;22;45583;-61
2023/06/13 09:37:29;;;;;;;;;19.50;18.50;;;;;25.82;47.26;100581.19;6279142;22;45493;-61
2023/06/13 09:39:54;;;;;;;;;17.75;17.25;;;;;25.93;46.99;100585.56;6306915;22;45435;-61
2023/06/13 09:42:23;;;;;;;;;17.00;16.75;;;;;25.88;46.46;100570.50;6308107;22;46259;-61
2023/06/13 09:44:52;;;;;;;;;20.25;18.00;;;;;26.06;46.45;100586.09;6307365;22;45282;-61
2023/06/13 09:47:25;;;;;;;;;16.50;15.50;;;;;26.10;46.08;100590.25;6307740;22;45606;-61
2023/06/13 09:49:57;;;;;;;;;17.75;16.50;;;;;26.13;46.62;100583.59;6279051;22;45345;-61
2023/06/13 09:52:24;;;;;;;;;17.50;17.50;;;;;26.18;45.64;100579.41;6306563;22;45994;-61
2023/06/13 09:54:51;;;;;;;;;20.75;17.75;;;;;26.27;45.72;100583.06;6254089;22;45774;-61
2023/06/13 09:57:17;;;;;;;;;18.00;16.75;;;;;26.28;45.90;100587.53;6279717;22;45272;-61
2023/06/13 09:59:45;;;;;;;;;18.25;18.00;;;;;26.36;44.83;100584.88;6306519;22;45240;-62
2023/06/13 10:02:10;;;;;;;;;19.75;15.25;;;;;26.32;45.27;100563.47;6307149;22;46201;-62
2023/06/13 10:04:35;;;;;;;;;17.00;15.25;;;;;26.42;45.29;100586.13;6280111;22;45228;-61
2023/06/13 10:07:02;;;;;;;;;16.25;16.25;;;;;26.50;45.04;100590.81;6308321;22;45405;-61
2023/06/13 10:09:27;;;;;;;;;19.00;18.00;;;;;26.54;44.53;100589.47;6307686;22;45405;-61
2023/06/13 10:11:55;;;;;;;;;19.50;19.50;;;;;26.61;44.85;100588.69;6308290;22;45473;-61
2023/06/13 10:14:23;;;;;;;;;15.75;15.75;;;;;26.63;43.94;100577.63;6279406;22;45259;-61
2023/06/13 10:16:59;;;;;;;;;21.75;20.25;;;;;26.71;45.26;100588.63;6279657;22;45501;-61
2023/06/13 10:19:25;;;;;;;;;14.50;14.00;;;;;26.73;44.58;100585.72;6308204;22;45322;-62
2023/06/13 10:21:52;;;;;;;;;20.25;18.75;;;;;26.72;44.29;100578.53;6279624;22;48008;-61
2023/06/13 10:24:19;;;;;;;;;20.00;17.50;;;;;26.74;45.32;100582.81;6280270;22;45426;-61
2023/06/13 10:26:46;;;;;;;;;23.25;21.00;;;;;26.86;44.55;100597.13;6279593;22;45321;-61
2023/06/13 10:29:37;;;;;;;;;20.25;20.00;;;;;26.89;43.98;100595.97;6307826;22;45279;-61
2023/06/13 10:32:34;;;;;;;;;19.00;17.75;;;;;26.90;42.40;100590.31;6308211;22;45410;-61
2023/06/13 10:35:12;;;;;;;;;18.50;16.25;;;;;26.97;43.53;100596.03;6307771;22;45272;-61
2023/06/13 10:37:43;;;;;;;;;18.25;18.00;;;;;27.00;43.49;100598.44;6307936;22;45224;-61
2023/06/13 10:40:15;;;;;;;;;15.75;15.75;;;;;27.04;42.63;100591.59;6279425;22;45454;-61
2023/06/13 10:42:48;;;;;;;;;18.00;16.25;;;;;27.08;42.43;100590.28;6307792;22;45388;-61
2023/06/13 10:45:18;;;;;;;;;14.50;14.50;;;;;27.12;41.86;100601.78;6279435;22;45866;-61
2023/06/13 10:47:44;;;;;;;;;17.25;16.00;;;;;27.11;42.17;100576.25;6279740;22;45348;-61
2023/06/13 10:50:14;;;;;;;;;16.50;15.50;;;;;27.20;41.94;100577.16;6307550;22;45257;-61
2023/06/13 10:52:42;;;;;;;;;13.50;13.50;;;;;27.22;41.62;100586.09;6307293;22;45363;-61
2023/06/13 10:55:21;;;;;;;;;17.25;16.50;;;;;27.18;41.17;100580.06;6280034;22;45512;-61
2023/06/13 10:57:48;;;;;;;;;17.75;17.00;;;;;27.24;41.81;100575.81;6307977;22;45280;-61
2023/06/13 11:00:43;;;;;;;;;16.75;15.75;;;;;27.34;41.62;100582.06;6307016;22;45387;-61
2023/06/13 11:03:12;;;;;;;;;17.25;17.00;;;;;27.37;41.60;100585.53;6281388;22;46091;-61
2023/06/13 11:05:48;;;;;;;;;15.50;15.50;;;;;27.35;40.70;100566.50;6308799;22;45275;-61
2023/06/13 11:08:27;;;;;;;;;15.50;13.25;;;;;27.38;40.49;100570.78;6281005;22;45189;-61
2023/06/13 11:10:53;;;;;;;;;15.75;15.75;;;;;27.34;39.70;100549.19;6280014;22;45867;-62